sensor_id;sensor_type;location;lat;lon;timestamp;P1;durP1;ratioP1;P2;durP2;ratioP2
71955;SDS011;59829;50.562;6.258;2023-04-24T00:24:03;2.08;;;1.00;;
71955;SDS011;59829;50.562;6.258;2023-04-24T00:54:04;2.67;;;1.30;;
71955;SDS011;59829;50.562;6.258;2023-04-24T01:24:05;4.00;;;2.03;;
71955;SDS011;59829;50.562;6.258;2023-04-24T01:54:06;3.37;;;1.87;;
71955;SDS011;59829;50.562;6.258;2023-04-24T02:24:07;4.45;;;2.28;;
71955;SDS011;59829;50.562;6.258;2023-04-24T02:54:07;3.97;;;2.20;;
71955;SDS011;59829;50.562;6.258;2023-04-24T03:24:11;4.15;;;2.30;;
71955;SDS011;59829;50.562;6.258;2023-04-24T03:54:11;4.80;;;2.38;;
71955;SDS011;59829;50.562;6.258;2023-04-24T04:24:12;4.15;;;2.25;;
71955;SDS011;59829;50.562;6.258;2023-04-24T04:54:12;3.60;;;1.80;;
71955;SDS011;59829;50.562;6.258;2023-04-24T05:24:13;3.13;;;1.40;;
71955;SDS011;59829;50.562;6.258;2023-04-24T05:54:13;1.75;;;0.90;;
71955;SDS011;59829;50.562;6.258;2023-04-24T06:24:14;0.80;;;0.40;;
71955;SDS011;59829;50.562;6.258;2023-04-24T07:24:15;0.50;;;0.30;;
71955;SDS011;59829;50.562;6.258;2023-04-24T07:54:16;1.15;;;0.50;;
71955;SDS011;59829;50.562;6.258;2023-04-24T08:24:16;1.17;;;0.68;;
71955;SDS011;59829;50.562;6.258;2023-04-24T08:54:17;2.53;;;1.42;;
71955;SDS011;59829;50.562;6.258;2023-04-24T09:24:19;2.27;;;1.43;;
71955;SDS011;59829;50.562;6.258;2023-04-24T09:54:22;5.18;;;2.42;;
71955;SDS011;59829;50.562;6.258;2023-04-24T10:24:24;5.03;;;2.60;;
71955;SDS011;59829;50.562;6.258;2023-04-24T11:54:46;6.05;;;2.85;;
71955;SDS011;59829;50.562;6.258;2023-04-24T12:24:57;6.18;;;2.80;;
71955;SDS011;59829;50.562;6.258;2023-04-24T12:54:58;4.22;;;2.17;;
71955;SDS011;59829;50.562;6.258;2023-04-24T13:24:59;6.70;;;2.80;;
71955;SDS011;59829;50.562;6.258;2023-04-24T14:25:02;7.25;;;3.70;;
71955;SDS011;59829;50.562;6.258;2023-04-24T15:25:05;6.43;;;3.20;;
71955;SDS011;59829;50.562;6.258;2023-04-24T15:55:05;6.63;;;3.15;;
71955;SDS011;59829;50.562;6.258;2023-04-24T16:25:07;6.65;;;3.40;;
71955;SDS011;59829;50.562;6.258;2023-04-24T16:55:08;6.47;;;3.10;;
71955;SDS011;59829;50.562;6.258;2023-04-24T17:25:09;7.80;;;3.57;;
71955;SDS011;59829;50.562;6.258;2023-04-24T17:55:10;5.43;;;2.95;;
71955;SDS011;59829;50.562;6.258;2023-04-24T18:25:10;8.80;;;3.97;;
71955;SDS011;59829;50.562;6.258;2023-04-24T18:55:11;6.37;;;3.20;;
71955;SDS011;59829;50.562;6.258;2023-04-24T19:25:12;7.75;;;3.90;;
71955;SDS011;59829;50.562;6.258;2023-04-24T19:55:12;7.18;;;3.45;;
71955;SDS011;59829;50.562;6.258;2023-04-24T20:25:13;6.10;;;3.03;;
71955;SDS011;59829;50.562;6.258;2023-04-24T20:55:13;6.03;;;3.05;;
71955;SDS011;59829;50.562;6.258;2023-04-24T21:25:14;6.43;;;3.03;;
71955;SDS011;59829;50.562;6.258;2023-04-24T21:55:14;5.47;;;2.53;;
71955;SDS011;59829;50.562;6.258;2023-04-24T22:25:16;5.68;;;2.88;;
71955;SDS011;59829;50.562;6.258;2023-04-24T23:25:16;5.38;;;3.05;;
71955;SDS011;59829;50.562;6.258;2023-04-24T23:55:17;6.70;;;2.58;;
